Time;durP1;ratioP1;P1;durP2;ratioP2;P2;SDS_P1;SDS_P2;PMS_P1;PMS_P2;Temp;Humidity;BMP_temperature;BMP_pressure;BME280_temperature;BME280_humidity;BME280_pressure;Samples;Min_cycle;Max_cycle;Signal;HPM_P1;HPM_P2
2021/04/30 00:01:57;;;;;;;14.23;10.40;;;7.50;99.90;;;;;;5053249;28;20256;-74
2021/04/30 00:04:24;;;;;;;14.13;10.47;;;7.50;99.90;;;;;;5051135;28;20303;-74
2021/04/30 00:06:51;;;;;;;12.60;9.37;;;7.50;99.90;;;;;;5049456;28;20261;-74
2021/04/30 00:09:18;;;;;;;12.60;9.70;;;7.60;99.90;;;;;;5052968;28;20341;-74
2021/04/30 00:11:44;;;;;;;14.27;10.10;;;7.60;99.90;;;;;;5052236;28;20199;-74
2021/04/30 00:14:11;;;;;;;13.17;9.57;;;7.50;99.90;;;;;;5053149;28;20207;-74
2021/04/30 00:16:39;;;;;;;11.73;9.00;;;7.60;99.90;;;;;;5051001;28;20282;-75
2021/04/30 00:19:06;;;;;;;13.03;9.20;;;7.60;99.90;;;;;;5052835;28;20695;-74
2021/04/30 00:21:34;;;;;;;14.07;9.60;;;7.60;99.90;;;;;;5052031;28;20203;-74
2021/04/30 00:24:00;;;;;;;12.60;9.57;;;7.60;99.90;;;;;;5053294;28;20203;-74
2021/04/30 00:26:27;;;;;;;12.50;9.17;;;7.60;99.90;;;;;;5054035;28;20222;-74
2021/04/30 00:28:54;;;;;;;12.67;9.43;;;7.60;99.90;;;;;;5052077;28;20234;-74
2021/04/30 00:31:20;;;;;;;11.90;9.10;;;7.70;99.90;;;;;;5052038;28;20207;-74
2021/04/30 00:33:47;;;;;;;12.03;8.50;;;7.60;99.90;;;;;;5059212;28;20286;-74
2021/04/30 00:36:13;;;;;;;13.07;9.90;;;7.70;99.90;;;;;;5052463;28;20195;-74
2021/04/30 00:38:41;;;;;;;12.33;9.63;;;7.70;99.90;;;;;;5047806;28;20333;-74
2021/04/30 00:41:07;;;;;;;12.83;9.50;;;7.70;99.90;;;;;;5050537;28;20716;-74
2021/04/30 00:43:33;;;;;;;13.57;9.63;;;7.70;99.90;;;;;;5056218;28;20226;-74
2021/04/30 00:46:00;;;;;;;14.07;9.97;;;7.80;99.90;;;;;;5055845;28;20290;-74
2021/04/30 00:48:26;;;;;;;14.13;9.80;;;7.80;99.90;;;;;;5051006;28;20289;-74
2021/04/30 00:50:53;;;;;;;13.70;9.83;;;7.80;99.90;;;;;;5051614;28;20277;-74
2021/04/30 00:53:21;;;;;;;13.93;9.93;;;7.80;99.90;;;;;;5052191;28;20668;-74
2021/04/30 00:55:48;;;;;;;13.63;9.70;;;7.80;99.90;;;;;;5048415;28;20209;-74
2021/04/30 00:58:14;;;;;;;13.33;9.63;;;7.80;99.90;;;;;;5056294;28;20229;-74
2021/04/30 01:00:41;;;;;;;13.60;10.00;;;7.80;99.90;;;;;;5053584;28;20207;-75
2021/04/30 01:03:09;;;;;;;15.40;10.57;;;7.80;99.90;;;;;;5050191;28;20715;-75
2021/04/30 01:05:36;;;;;;;12.37;10.03;;;7.80;99.90;;;;;;5045849;28;20234;-74
2021/04/30 01:08:03;;;;;;;14.67;10.30;;;7.80;99.90;;;;;;5051817;28;20283;-74
2021/04/30 01:10:29;;;;;;;14.17;10.93;;;7.80;99.90;;;;;;5048829;28;20298;-75
2021/04/30 01:12:57;;;;;;;12.87;9.87;;;7.90;99.90;;;;;;5050374;28;20214;-75
2021/04/30 01:15:24;;;;;;;14.07;10.20;;;7.80;99.90;;;;;;5056865;28;20203;-74
2021/04/30 01:17:52;;;;;;;12.97;9.60;;;7.90;99.90;;;;;;5049519;28;20597;-74
2021/04/30 01:20:19;;;;;;;13.30;9.53;;;7.90;99.90;;;;;;5051614;28;20656;-74
2021/04/30 01:22:47;;;;;;;14.53;10.47;;;7.90;99.90;;;;;;5050345;28;20202;-74
2021/04/30 01:25:16;;;;;;;12.50;10.30;;;7.90;99.90;;;;;;5050367;28;20213;-74
2021/04/30 01:27:44;;;;;;;13.10;10.00;;;7.90;99.90;;;;;;5050170;28;20229;-74
2021/04/30 01:30:12;;;;;;;14.97;10.57;;;7.90;99.90;;;;;;5050558;28;20192;-74
2021/04/30 01:32:39;;;;;;;12.70;8.93;;;7.90;99.90;;;;;;5054667;28;20207;-74
2021/04/30 01:35:07;;;;;;;13.60;10.27;;;7.90;99.90;;;;;;5051547;28;20253;-74
2021/04/30 01:37:34;;;;;;;15.40;10.97;;;7.80;99.90;;;;;;5052216;28;20211;-74
2021/04/30 01:40:02;;;;;;;14.23;10.10;;;7.90;99.90;;;;;;5051454;28;20230;-74
2021/04/30 01:42:28;;;;;;;14.37;10.37;;;7.90;99.90;;;;;;5053424;28;20209;-74
2021/04/30 01:44:55;;;;;;;15.87;11.10;;;7.90;99.90;;;;;;5049229;28;20203;-74
2021/04/30 01:47:21;;;;;;;14.70;11.03;;;7.80;99.90;;;;;;5054850;28;20194;-74
2021/04/30 01:49:47;;;;;;;16.60;11.57;;;7.80;99.90;;;;;;5051373;28;20256;-74
2021/04/30 01:52:14;;;;;;;15.87;11.17;;;7.80;99.90;;;;;;5047683;28;20214;-74
2021/04/30 01:54:48;;;;;;;14.10;10.10;;;7.80;99.90;;;;;;5043929;28;20195;-74
2021/04/30 01:57:15;;;;;;;14.60;11.10;;;7.90;99.90;;;;;;5053350;28;20256;-74
2021/04/30 01:59:42;;;;;;;15.13;10.47;;;7.80;99.90;;;;;;5045683;28;20329;-74
2021/04/30 02:02:08;;;;;;;15.70;10.47;;;7.80;99.90;;;;;;5045882;28;20203;-74
2021/04/30 02:04:35;;;;;;;16.73;11.50;;;7.80;99.90;;;;;;5049518;28;20228;-74
2021/04/30 02:07:01;;;;;;;15.83;11.47;;;7.80;99.90;;;;;;5051494;28;20214;-74
2021/04/30 02:09:27;;;;;;;15.50;11.20;;;7.80;99.90;;;;;;5047397;28;20310;-74
2021/04/30 02:11:54;;;;;;;16.60;11.57;;;7.80;99.90;;;;;;5051202;28;20205;-74
2021/04/30 02:14:21;;;;;;;16.63;12.23;;;7.90;99.90;;;;;;5043586;28;20239;-74
2021/04/30 02:16:47;;;;;;;16.97;11.30;;;7.90;99.90;;;;;;5043780;28;20211;-74
2021/04/30 02:19:13;;;;;;;17.50;12.77;;;7.90;99.90;;;;;;5047612;28;20226;-74
2021/04/30 02:21:40;;;;;;;15.93;11.03;;;7.90;99.90;;;;;;5052452;28;20293;-74
2021/04/30 02:24:07;;;;;;;16.50;12.27;;;7.90;99.90;;;;;;5051173;28;20265;-74
2021/04/30 02:26:33;;;;;;;18.03;12.90;;;7.90;99.90;;;;;;5050977;28;20215;-74
2021/04/30 02:28:59;;;;;;;17.30;12.47;;;7.90;99.90;;;;;;5051157;28;20203;-74
2021/04/30 02:31:26;;;;;;;17.87;12.73;;;7.90;99.90;;;;;;5051517;28;20253;-74
2021/04/30 02:33:53;;;;;;;17.33;11.37;;;7.90;99.90;;;;;;5053250;28;20547;-74
2021/04/30 02:36:19;;;;;;;17.77;12.30;;;7.90;99.90;;;;;;5050694;28;20649;-74
2021/04/30 02:38:45;;;;;;;18.27;13.17;;;7.90;99.90;;;;;;5054292;28;20218;-74
2021/04/30 02:41:12;;;;;;;19.70;13.77;;;7.90;99.90;;;;;;5053697;28;20615;-74
2021/04/30 02:43:38;;;;;;;18.77;13.20;;;8.00;99.90;;;;;;5051457;28;20207;-74
2021/04/30 02:46:05;;;;;;;19.83;13.60;;;8.00;99.90;;;;;;5050291;28;20198;-74
2021/04/30 02:48:33;;;;;;;19.63;13.53;;;8.00;99.90;;;;;;5050272;28;20199;-74
2021/04/30 02:51:03;;;;;;;20.67;14.33;;;7.90;99.90;;;;;;5042244;28;20294;-74
2021/04/30 02:53:29;;;;;;;20.47;14.20;;;8.00;99.90;;;;;;5048860;28;20691;-74
2021/04/30 02:55:56;;;;;;;22.57;15.67;;;8.00;99.90;;;;;;5047241;28;20203;-74
2021/04/30 02:58:22;;;;;;;23.90;16.90;;;8.00;99.90;;;;;;5056204;28;20226;-74
2021/04/30 03:00:49;;;;;;;21.67;15.77;;;8.00;99.90;;;;;;5052496;28;20583;-74
2021/04/30 03:03:16;;;;;;;23.07;16.00;;;8.00;99.90;;;;;;5054158;28;20570;-74
2021/04/30 03:05:43;;;;;;;24.90;17.63;;;8.00;99.90;;;;;;5056962;28;20199;-74
2021/04/30 03:08:09;;;;;;;24.30;17.40;;;7.90;99.90;;;;;;5046967;28;20209;-74
2021/04/30 03:10:36;;;;;;;24.70;17.77;;;7.90;99.90;;;;;;5047228;28;20684;-74
2021/04/30 03:13:03;;;;;;;27.57;18.87;;;7.90;99.90;;;;;;5048371;28;20215;-75
2021/04/30 03:15:29;;;;;;;26.97;18.97;;;7.90;99.90;;;;;;5047461;28;20233;-74
2021/04/30 03:17:56;;;;;;;27.07;18.80;;;7.90;99.90;;;;;;5051885;28;20195;-74
2021/04/30 03:20:22;;;;;;;25.97;19.43;;;7.90;99.90;;;;;;5049780;28;20235;-74
2021/04/30 03:22:50;;;;;;;30.17;20.13;;;7.90;99.90;;;;;;5053949;28;20219;-74
2021/04/30 03:25:17;;;;;;;26.00;19.40;;;7.80;99.90;;;;;;5055287;28;20207;-74
2021/04/30 03:27:44;;;;;;;25.57;19.00;;;7.90;99.90;;;;;;5053360;28;20203;-74
2021/04/30 03:30:12;;;;;;;26.43;20.00;;;7.90;99.90;;;;;;5052991;28;20207;-75
2021/04/30 03:32:39;;;;;;;28.10;20.37;;;7.90;99.90;;;;;;5053757;28;20213;-74
2021/04/30 03:35:07;;;;;;;25.13;18.73;;;7.90;99.90;;;;;;5054123;28;20246;-74
2021/04/30 03:37:34;;;;;;;25.57;19.40;;;7.80;99.90;;;;;;5054443;28;20657;-75
2021/04/30 03:40:01;;;;;;;25.60;18.97;;;7.90;99.90;;;;;;5053531;28;20230;-74
2021/04/30 03:42:27;;;;;;;27.43;20.23;;;7.90;99.90;;;;;;5054175;28;20222;-75
2021/04/30 03:44:54;;;;;;;27.33;20.90;;;7.80;99.90;;;;;;5053732;28;20203;-75
2021/04/30 03:47:20;;;;;;;26.97;19.93;;;7.80;99.90;;;;;;5053909;28;20203;-74
2021/04/30 03:49:46;;;;;;;26.00;19.27;;;7.80;99.90;;;;;;5051650;28;20206;-74
2021/04/30 03:52:13;;;;;;;26.10;18.97;;;7.90;99.90;;;;;;5047972;28;20652;-75
2021/04/30 03:54:39;;;;;;;27.50;20.17;;;7.80;99.90;;;;;;5048407;28;20207;-75
2021/04/30 03:57:06;;;;;;;25.97;18.50;;;7.80;99.90;;;;;;5049779;28;20202;-74
2021/04/30 03:59:33;;;;;;;25.47;19.77;;;7.80;99.90;;;;;;5048515;28;20219;-75
2021/04/30 04:01:59;;;;;;;27.27;20.40;;;7.80;99.90;;;;;;5051696;28;20209;-74
2021/04/30 04:04:26;;;;;;;27.97;19.43;;;7.90;99.90;;;;;;5055743;28;20210;-75
2021/04/30 04:06:52;;;;;;;26.53;19.97;;;7.90;99.90;;;;;;5057774;28;20198;-75
2021/04/30 04:09:19;;;;;;;27.87;20.40;;;7.90;99.90;;;;;;5052746;28;20203;-75
2021/04/30 04:11:46;;;;;;;26.20;20.37;;;7.90;99.90;;;;;;5052278;28;20680;-75
2021/04/30 04:14:13;;;;;;;27.30;19.57;;;7.80;99.90;;;;;;5056721;28;20543;-74
2021/04/30 04:16:40;;;;;;;27.17;20.23;;;7.80;99.90;;;;;;5053383;28;20199;-74
2021/04/30 04:19:06;;;;;;;27.20;20.20;;;7.90;99.90;;;;;;5052515;28;20273;-75
2021/04/30 04:21:32;;;;;;;27.37;20.73;;;7.90;99.90;;;;;;5053054;28;20199;-75
2021/04/30 04:23:58;;;;;;;26.63;20.80;;;7.80;99.90;;;;;;5053422;28;20627;-75
2021/04/30 04:26:25;;;;;;;26.40;20.87;;;7.90;99.90;;;;;;5052744;28;20219;-74
2021/04/30 04:28:51;;;;;;;27.00;19.70;;;8.00;99.90;;;;;;5053458;28;20202;-74
2021/04/30 04:31:18;;;;;;;26.20;19.57;;;8.00;99.90;;;;;;5053505;28;20213;-75
2021/04/30 04:33:45;;;;;;;27.47;20.13;;;8.00;99.90;;;;;;5050638;28;20207;-75
2021/04/30 04:36:11;;;;;;;27.10;19.70;;;8.10;99.90;;;;;;5048516;28;20665;-74
2021/04/30 04:38:37;;;;;;;28.10;21.13;;;8.10;99.90;;;;;;5052649;28;20233;-74
2021/04/30 04:41:04;;;;;;;28.23;20.80;;;8.00;99.90;;;;;;5051025;28;20210;-74
2021/04/30 04:43:31;;;;;;;28.07;20.67;;;8.00;99.90;;;;;;5052779;28;20222;-74
2021/04/30 04:45:57;;;;;;;28.37;21.20;;;7.90;99.90;;;;;;5052160;28;20207;-75
2021/04/30 04:48:25;;;;;;;29.23;21.23;;;8.00;99.90;;;;;;5052806;28;20199;-75
2021/04/30 04:50:51;;;;;;;27.73;20.87;;;8.00;99.90;;;;;;5044350;28;20650;-74
2021/04/30 04:53:17;;;;;;;28.43;20.93;;;8.00;99.90;;;;;;5048357;28;20207;-74
2021/04/30 04:55:44;;;;;;;26.87;20.87;;;7.90;99.90;;;;;;5046688;28;20574;-74
2021/04/30 04:58:10;;;;;;;29.50;21.80;;;7.90;99.90;;;;;;5048150;28;20285;-75
2021/04/30 05:00:36;;;;;;;28.17;21.37;;;8.00;99.90;;;;;;5050288;28;20207;-75
2021/04/30 05:03:03;;;;;;;28.37;21.73;;;8.00;99.90;;;;;;5053073;28;20205;-74
2021/04/30 05:05:30;;;;;;;28.40;20.87;;;8.10;99.90;;;;;;5053899;28;20199;-75
2021/04/30 05:07:56;;;;;;;30.20;22.13;;;8.10;99.90;;;;;;5051216;28;20213;-74
2021/04/30 05:10:23;;;;;;;29.43;22.23;;;8.10;99.90;;;;;;5052797;28;20722;-75
2021/04/30 05:12:49;;;;;;;30.03;21.77;;;8.10;99.90;;;;;;5049239;28;20206;-75
2021/04/30 05:15:16;;;;;;;30.33;22.03;;;8.10;99.90;;;;;;5044436;28;20206;-75
2021/04/30 05:17:43;;;;;;;34.13;25.37;;;8.10;99.90;;;;;;5052133;28;20217;-75
2021/04/30 05:20:11;;;;;;;31.57;23.30;;;8.20;99.90;;;;;;5045579;28;20223;-75
2021/04/30 05:22:41;;;;;;;30.50;23.07;;;8.20;99.90;;;;;;5050704;28;20211;-75
2021/04/30 05:25:09;;;;;;;33.17;22.87;;;8.20;99.90;;;;;;5049811;28;20298;-75
2021/04/30 05:27:35;;;;;;;28.87;22.43;;;8.20;99.90;;;;;;5050384;28;20256;-75
2021/04/30 05:30:02;;;;;;;30.77;23.17;;;8.20;99.90;;;;;;5048310;28;20199;-75
2021/04/30 05:32:28;;;;;;;29.10;21.53;;;8.20;99.90;;;;;;5052793;28;20225;-75
2021/04/30 05:34:57;;;;;;;30.60;23.50;;;8.20;99.90;;;;;;5052223;28;20342;-75
2021/04/30 05:37:23;;;;;;;29.03;22.23;;;8.20;99.90;;;;;;5048332;28;21113;-75
2021/04/30 05:39:50;;;;;;;29.90;22.83;;;8.30;99.90;;;;;;5037025;28;20305;-75
2021/04/30 05:42:17;;;;;;;33.20;24.07;;;8.30;99.90;;;;;;5042164;28;20218;-75
2021/04/30 05:44:43;;;;;;;32.40;23.50;;;8.30;99.90;;;;;;5042219;28;20211;-75
2021/04/30 05:47:09;;;;;;;30.27;22.63;;;8.40;99.90;;;;;;5046090;28;20549;-75
2021/04/30 05:49:36;;;;;;;32.87;23.67;;;8.30;99.90;;;;;;5046402;28;20249;-75
2021/04/30 05:52:02;;;;;;;32.90;23.70;;;8.40;99.90;;;;;;5043145;28;20227;-75
2021/04/30 05:54:30;;;;;;;32.57;23.83;;;8.30;99.90;;;;;;5046422;28;20207;-75
2021/04/30 05:56:57;;;;;;;29.57;23.13;;;8.30;99.90;;;;;;5041740;28;20243;-74
2021/04/30 05:59:24;;;;;;;30.43;22.93;;;8.30;99.90;;;;;;5040332;28;20218;-75
2021/04/30 06:01:50;;;;;;;33.27;24.43;;;8.30;99.90;;;;;;5045853;28;20210;-75
2021/04/30 06:04:17;;;;;;;28.27;21.23;;;8.30;99.90;;;;;;5043549;28;20657;-75
2021/04/30 06:06:49;;;;;;;31.07;22.13;;;8.30;99.90;;;;;;5043418;28;20211;-75
2021/04/30 06:09:15;;;;;;;29.63;23.17;;;8.40;99.90;;;;;;5045899;28;20203;-74
2021/04/30 06:11:42;;;;;;;32.20;23.87;;;8.40;99.90;;;;;;5047976;28;20206;-72
2021/04/30 06:14:10;;;;;;;32.13;23.63;;;8.30;99.90;;;;;;5050374;28;20203;-76
2021/04/30 06:16:36;;;;;;;38.43;28.37;;;8.40;99.90;;;;;;5044695;28;20567;-78
2021/04/30 06:19:03;;;;;;;31.17;23.43;;;8.40;99.90;;;;;;5042535;28;20223;-78
2021/04/30 06:21:30;;;;;;;32.33;22.73;;;8.30;99.90;;;;;;5048914;28;20245;-78
2021/04/30 06:23:56;;;;;;;32.80;23.97;;;8.30;99.90;;;;;;5043667;28;20549;-78
2021/04/30 06:26:23;;;;;;;31.43;23.50;;;8.30;99.90;;;;;;5044911;28;20227;-78
2021/04/30 06:28:49;;;;;;;30.70;23.17;;;8.30;99.90;;;;;;5044749;28;20206;-78
2021/04/30 06:31:17;;;;;;;31.93;24.27;;;8.30;99.90;;;;;;5043893;28;20211;-78
2021/04/30 06:33:43;;;;;;;32.97;24.43;;;8.30;99.90;;;;;;5046386;28;21464;-78
2021/04/30 06:36:10;;;;;;;32.87;25.37;;;8.30;99.90;;;;;;5046909;28;20207;-78
2021/04/30 06:38:36;;;;;;;34.30;24.00;;;8.30;99.90;;;;;;5043827;28;20218;-78
2021/04/30 06:41:03;;;;;;;32.33;24.60;;;8.30;99.90;;;;;;5045070;28;20613;-78
2021/04/30 06:43:29;;;;;;;33.93;25.10;;;8.40;99.90;;;;;;5039922;28;20298;-78
2021/04/30 06:45:56;;;;;;;33.87;25.33;;;8.40;99.90;;;;;;5043812;28;20211;-78
2021/04/30 06:48:23;;;;;;;35.07;26.37;;;8.50;99.90;;;;;;5045744;28;20199;-78
2021/04/30 06:50:49;;;;;;;35.47;26.20;;;8.60;99.90;;;;;;5047363;28;20203;-78
2021/04/30 06:53:16;;;;;;;35.83;25.93;;;8.60;99.90;;;;;;5046548;28;20202;-78
2021/04/30 06:55:42;;;;;;;34.60;25.57;;;8.80;99.90;;;;;;5047341;28;20290;-78
2021/04/30 06:58:08;;;;;;;37.77;27.53;;;8.80;99.90;;;;;;5046769;28;20538;-75
2021/04/30 07:00:35;;;;;;;36.07;27.17;;;8.80;99.90;;;;;;5046319;28;20218;-75
2021/04/30 07:03:01;;;;;;;35.20;25.87;;;8.80;99.90;;;;;;5046888;28;20200;-75
2021/04/30 07:05:28;;;;;;;35.33;26.33;;;8.80;99.90;;;;;;5047944;28;20653;-75
2021/04/30 07:07:57;;;;;;;37.10;27.60;;;8.90;99.90;;;;;;5047695;28;20549;-75
2021/04/30 07:10:24;;;;;;;37.43;26.97;;;9.00;99.90;;;;;;5047630;28;20237;-75
2021/04/30 07:12:50;;;;;;;35.70;27.97;;;9.10;99.90;;;;;;5048630;28;20649;-75
2021/04/30 07:15:17;;;;;;;38.27;28.03;;;9.30;99.90;;;;;;5050392;28;20210;-75
2021/04/30 07:17:44;;;;;;;37.90;28.67;;;9.30;99.90;;;;;;5049550;28;21981;-75
2021/04/30 07:20:12;;;;;;;36.00;27.73;;;9.40;99.90;;;;;;5047485;28;20230;-75
2021/04/30 07:22:39;;;;;;;36.30;26.80;;;9.40;99.90;;;;;;5045631;28;20214;-75
2021/04/30 07:25:07;;;;;;;37.80;27.87;;;9.50;99.90;;;;;;5045079;28;20260;-75
2021/04/30 07:27:33;;;;;;;36.37;27.37;;;9.50;99.90;;;;;;5044465;28;20211;-75
2021/04/30 07:29:59;;;;;;;37.27;28.53;;;9.60;99.90;;;;;;5049656;28;20201;-75
2021/04/30 07:32:26;;;;;;;35.20;26.47;;;9.30;99.90;;;;;;5046975;28;20207;-75
2021/04/30 07:34:52;;;;;;;36.97;27.87;;;9.40;99.90;;;;;;5045514;28;20582;-75
2021/04/30 07:37:19;;;;;;;35.80;27.80;;;9.60;99.90;;;;;;5045260;28;20559;-75
2021/04/30 07:39:46;;;;;;;38.53;28.17;;;9.50;99.90;;;;;;5054538;28;20222;-75
2021/04/30 07:42:12;;;;;;;36.97;28.50;;;9.40;99.90;;;;;;5054769;28;20204;-75
2021/04/30 07:44:39;;;;;;;36.80;28.23;;;9.50;99.90;;;;;;5049334;28;20532;-75
2021/04/30 07:47:05;;;;;;;35.03;27.00;;;9.40;99.90;;;;;;5049152;28;20663;-75
2021/04/30 07:49:32;;;;;;;35.23;27.10;;;9.50;99.90;;;;;;5052823;28;20210;-75
2021/04/30 07:51:58;;;;;;;35.37;26.90;;;9.50;99.90;;;;;;5047059;28;20225;-75
2021/04/30 07:54:25;;;;;;;36.30;28.10;;;9.60;99.90;;;;;;5045069;28;20199;-75
2021/04/30 07:56:52;;;;;;;37.27;27.93;;;9.60;99.90;;;;;;5054347;28;20210;-75
2021/04/30 07:59:18;;;;;;;34.23;26.53;;;9.70;99.90;;;;;;5051954;28;20281;-75
2021/04/30 08:01:44;;;;;;;34.73;27.23;;;9.70;99.90;;;;;;5046120;28;20206;-75
2021/04/30 08:04:11;;;;;;;33.87;26.10;;;9.90;99.90;;;;;;5051307;28;20221;-75
2021/04/30 08:06:38;;;;;;;35.87;26.53;;;9.90;99.90;;;;;;5062166;28;20213;-75
2021/04/30 08:09:05;;;;;;;35.87;27.03;;;10.10;99.90;;;;;;5062526;28;20613;-75
2021/04/30 08:11:34;;;;;;;38.57;27.67;;;10.00;99.90;;;;;;5060483;28;20210;-75
2021/04/30 08:14:01;;;;;;;34.70;27.43;;;9.90;99.90;;;;;;5062100;28;20203;-75
2021/04/30 08:16:28;;;;;;;34.47;26.33;;;9.90;99.90;;;;;;5068414;28;20613;-75
2021/04/30 08:18:54;;;;;;;34.47;25.80;;;10.30;99.90;;;;;;5063437;28;20235;-75
2021/04/30 08:21:20;;;;;;;34.03;26.43;;;10.30;99.90;;;;;;5056055;28;20620;-75
2021/04/30 08:23:47;;;;;;;35.43;27.33;;;10.40;99.90;;;;;;5057766;28;20209;-75
2021/04/30 08:26:13;;;;;;;33.60;26.13;;;10.50;99.90;;;;;;5061859;28;20264;-75
2021/04/30 08:28:39;;;;;;;38.67;28.47;;;10.40;99.90;;;;;;5059910;28;20645;-75
2021/04/30 08:31:06;;;;;;;34.40;26.37;;;10.50;99.90;;;;;;5062317;28;20212;-75
2021/04/30 08:33:33;;;;;;;36.27;26.83;;;10.70;99.90;;;;;;5060033;28;20583;-75
2021/04/30 08:35:59;;;;;;;33.33;26.00;;;10.70;99.90;;;;;;5061637;28;20198;-75
2021/04/30 08:38:25;;;;;;;31.43;25.40;;;10.60;99.90;;;;;;5060710;28;20234;-75
2021/04/30 08:40:52;;;;;;;31.83;25.17;;;10.80;99.90;;;;;;5055489;28;20219;-75
2021/04/30 08:43:19;;;;;;;30.97;24.47;;;10.80;99.90;;;;;;5057690;28;20232;-75
2021/04/30 08:45:46;;;;;;;31.53;24.83;;;11.00;99.90;;;;;;5061385;28;20652;-75
2021/04/30 08:48:15;;;;;;;30.33;23.77;;;11.10;99.90;;;;;;5061333;28;20209;-76
2021/04/30 08:50:41;;;;;;;32.73;24.90;;;11.00;99.90;;;;;;5063279;28;20648;-75
2021/04/30 08:53:08;;;;;;;29.63;24.43;;;11.00;99.90;;;;;;5062399;28;20571;-75
2021/04/30 08:55:34;;;;;;;32.33;26.03;;;11.30;99.90;;;;;;5061721;28;20208;-75
2021/04/30 08:58:04;;;;;;;29.87;22.70;;;11.30;99.90;;;;;;5066543;28;20198;-75
2021/04/30 09:00:31;;;;;;;29.00;22.90;;;11.50;99.90;;;;;;5070171;28;20253;-75
2021/04/30 09:02:57;;;;;;;30.40;23.87;;;11.50;99.90;;;;;;5069001;28;20239;-75
2021/04/30 09:05:26;;;;;;;26.47;20.77;;;11.30;99.90;;;;;;5069516;28;20210;-75
2021/04/30 09:07:55;;;;;;;26.83;21.13;;;11.40;99.90;;;;;;5059945;28;20210;-75
2021/04/30 09:10:22;;;;;;;28.30;22.40;;;11.30;99.90;;;;;;5055119;28;20230;-75
2021/04/30 09:13:06;;;;;;;28.80;21.83;;;11.10;99.90;;;;;;5060910;28;20201;-75
2021/04/30 09:15:34;;;;;;;28.67;22.77;;;11.00;99.90;;;;;;5058429;28;20293;-75
2021/04/30 09:18:28;;;;;;;26.37;21.53;;;11.00;99.90;;;;;;5060269;28;20732;-75
2021/04/30 09:21:05;;;;;;;26.63;21.03;;;11.10;99.90;;;;;;5040206;28;20272;-75
2021/04/30 09:23:37;;;;;;;30.40;22.10;;;10.80;99.90;;;;;;5060618;28;20202;-75
2021/04/30 09:26:20;;;;;;;27.73;21.00;;;10.80;99.90;;;;;;5065187;28;20225;-75
2021/04/30 09:28:58;;;;;;;29.83;22.93;;;10.80;99.90;;;;;;5067838;28;20216;-75
2021/04/30 09:31:35;;;;;;;27.87;22.33;;;10.70;99.90;;;;;;5061817;28;20194;-75
2021/04/30 09:34:19;;;;;;;29.47;22.50;;;10.60;99.90;;;;;;5065102;28;20201;-75
2021/04/30 09:37:01;;;;;;;30.53;22.63;;;10.50;99.90;;;;;;5064504;28;20198;-75
2021/04/30 09:39:28;;;;;;;29.20;22.27;;;10.50;99.90;;;;;;5064910;28;20218;-75
2021/04/30 09:42:11;;;;;;;32.37;22.87;;;10.50;99.90;;;;;;5062809;28;20723;-76
2021/04/30 09:44:39;;;;;;;31.67;24.03;;;10.70;99.90;;;;;;5058284;28;20798;-75
2021/04/30 09:47:14;;;;;;;30.77;23.47;;;10.60;99.90;;;;;;5065937;28;20203;-76
2021/04/30 09:49:40;;;;;;;30.70;24.40;;;10.70;99.90;;;;;;5050348;28;20199;-75
2021/04/30 09:52:08;;;;;;;27.93;22.17;;;10.80;99.90;;;;;;5060121;28;20641;-75
2021/04/30 09:54:37;;;;;;;28.17;21.93;;;10.70;99.90;;;;;;5061436;28;20576;-75
2021/04/30 09:57:07;;;;;;;31.03;23.73;;;11.10;99.90;;;;;;5049011;28;20218;-76
2021/04/30 09:59:34;;;;;;;31.80;24.40;;;11.00;99.90;;;;;;5051295;28;20203;-76
2021/04/30 10:02:10;;;;;;;31.40;24.47;;;11.20;99.90;;;;;;5058782;28;20198;-76
2021/04/30 10:04:38;;;;;;;29.90;23.77;;;11.10;99.90;;;;;;5053823;28;20636;-76
2021/04/30 10:07:06;;;;;;;32.57;25.67;;;11.30;99.90;;;;;;5063017;28;20194;-76
2021/04/30 10:09:34;;;;;;;30.10;23.90;;;11.50;99.90;;;;;;5054892;28;20645;-76
2021/04/30 10:12:21;;;;;;;28.60;22.50;;;11.70;99.90;;;;;;5066641;28;20706;-76
2021/04/30 10:14:48;;;;;;;30.80;24.43;;;11.90;99.90;;;;;;5049135;28;20204;-76
2021/04/30 10:17:15;;;;;;;29.77;23.57;;;11.80;99.90;;;;;;5042896;28;20300;-76
2021/04/30 10:19:42;;;;;;;30.23;24.33;;;11.50;99.90;;;;;;5049036;28;20559;-76
2021/04/30 10:22:15;;;;;;;28.60;22.50;;;11.80;99.90;;;;;;5055948;28;20209;-76
2021/04/30 10:24:47;;;;;;;27.07;21.57;;;11.50;99.90;;;;;;5039881;28;20246;-76
2021/04/30 10:27:17;;;;;;;29.90;23.47;;;11.50;99.90;;;;;;5049563;28;20196;-76
2021/04/30 10:29:51;;;;;;;28.90;23.07;;;11.60;99.90;;;;;;5041267;28;20637;-79
2021/04/30 10:32:21;;;;;;;28.93;22.70;;;11.90;99.90;;;;;;5053102;28;20206;-78
2021/04/30 10:34:51;;;;;;;28.90;23.27;;;11.40;99.90;;;;;;5060820;28;20234;-79
2021/04/30 10:37:23;;;;;;;29.07;23.20;;;11.30;99.90;;;;;;5065233;28;20194;-78
2021/04/30 10:39:58;;;;;;;32.37;23.67;;;11.20;99.90;;;;;;5048760;28;20223;-78
2021/04/30 10:42:38;;;;;;;29.50;22.93;;;11.20;99.90;;;;;;5060471;28;20202;-78
2021/04/30 10:45:06;;;;;;;28.87;22.70;;;11.20;99.90;;;;;;5067009;28;20201;-79
2021/04/30 10:47:33;;;;;;;29.03;21.67;;;11.30;99.90;;;;;;5051340;28;20206;-78
2021/04/30 10:50:19;;;;;;;27.83;22.13;;;11.40;99.90;;;;;;5059738;28;20197;-78
2021/04/30 10:52:47;;;;;;;29.27;22.73;;;11.50;99.90;;;;;;5056446;28;20281;-78
2021/04/30 10:55:17;;;;;;;28.27;23.47;;;11.60;99.90;;;;;;5063749;28;20593;-78
2021/04/30 10:57:51;;;;;;;30.87;23.93;;;11.40;99.90;;;;;;5054280;28;20234;-79
2021/04/30 11:00:19;;;;;;;30.47;24.53;;;11.40;99.90;;;;;;5051911;28;20210;-78
2021/04/30 11:02:46;;;;;;;32.50;23.93;;;11.30;99.90;;;;;;5051744;28;20198;-78
2021/04/30 11:05:17;;;;;;;30.80;23.97;;;11.20;99.90;;;;;;5060434;28;20357;-78
2021/04/30 11:07:47;;;;;;;31.13;24.03;;;11.20;99.90;;;;;;5050394;28;20202;-78
2021/04/30 11:10:39;;;;;;;31.33;24.37;;;11.10;99.90;;;;;;5054283;28;20247;-78
2021/04/30 11:13:15;;;;;;;31.20;24.27;;;11.10;99.90;;;;;;5060214;28;20206;-79
2021/04/30 11:16:01;;;;;;;31.10;23.60;;;11.20;99.90;;;;;;5067082;28;20224;-79
2021/04/30 11:18:30;;;;;;;30.07;23.73;;;11.00;99.90;;;;;;5058818;28;20210;-78
2021/04/30 11:21:05;;;;;;;31.27;23.40;;;11.10;99.90;;;;;;5058315;28;20679;-78
2021/04/30 11:23:38;;;;;;;29.90;24.10;;;11.20;99.90;;;;;;5064114;28;20210;-78
2021/04/30 11:26:11;;;;;;;28.43;22.90;;;11.30;99.90;;;;;;5055725;28;20214;-78
2021/04/30 11:29:07;;;;;;;28.60;22.83;;;11.10;99.90;;;;;;5063745;28;20263;-78
2021/04/30 11:31:35;;;;;;;27.67;21.80;;;11.10;99.90;;;;;;5057520;28;20210;-78
2021/04/30 11:34:21;;;;;;;31.33;23.53;;;11.00;99.90;;;;;;5058072;28;20199;-78
2021/04/30 11:36:56;;;;;;;30.03;23.07;;;11.10;99.90;;;;;;5071123;28;20202;-78
2021/04/30 11:39:26;;;;;;;30.70;23.43;;;11.20;99.90;;;;;;5059664;28;20230;-79
2021/04/30 11:41:59;;;;;;;29.43;22.77;;;10.90;99.90;;;;;;5061292;28;20361;-78
2021/04/30 11:44:25;;;;;;;28.63;21.70;;;11.00;99.90;;;;;;5059028;28;20222;-78
2021/04/30 11:46:59;;;;;;;30.30;23.20;;;11.00;99.90;;;;;;5068391;28;20204;-78
2021/04/30 11:49:25;;;;;;;27.97;21.70;;;11.00;99.90;;;;;;5059753;28;20557;-78
2021/04/30 11:51:52;;;;;;;29.30;21.97;;;10.90;99.90;;;;;;5053164;28;20198;-78
2021/04/30 11:54:20;;;;;;;29.27;22.13;;;11.00;99.90;;;;;;5058620;28;20221;-78
2021/04/30 11:56:56;;;;;;;29.00;23.27;;;10.80;99.90;;;;;;5056050;28;20206;-78
2021/04/30 11:59:22;;;;;;;31.47;22.90;;;10.80;99.90;;;;;;5067664;28;20226;-78
2021/04/30 12:01:56;;;;;;;29.77;22.23;;;10.80;99.90;;;;;;5068805;28;20687;-78
2021/04/30 12:04:51;;;;;;;31.30;22.47;;;10.80;99.90;;;;;;5064635;28;20202;-78
2021/04/30 12:07:19;;;;;;;28.70;21.83;;;10.70;99.90;;;;;;5007929;28;20206;-78
2021/04/30 12:09:46;;;;;;;29.47;22.03;;;10.80;99.90;;;;;;5068753;28;20196;-78
2021/04/30 12:12:16;;;;;;;28.23;22.40;;;10.80;99.90;;;;;;5062477;28;20211;-78
2021/04/30 12:14:44;;;;;;;26.53;19.57;;;10.80;99.90;;;;;;5066617;28;20199;-78
2021/04/30 12:17:23;;;;;;;26.77;20.60;;;10.80;99.90;;;;;;5065505;28;20825;-78
2021/04/30 12:20:01;;;;;;;28.70;21.00;;;10.80;99.90;;;;;;5060902;28;20214;-78
2021/04/30 12:22:28;;;;;;;28.13;20.63;;;10.80;99.90;;;;;;5058394;28;20240;-78
2021/04/30 12:25:16;;;;;;;27.73;20.67;;;10.80;99.90;;;;;;5065542;28;20238;-75
2021/04/30 12:27:43;;;;;;;30.10;20.90;;;10.80;99.90;;;;;;5065830;28;20679;-75
2021/04/30 12:30:11;;;;;;;27.53;21.10;;;10.80;99.90;;;;;;5058744;28;20199;-75
2021/04/30 12:32:37;;;;;;;26.67;21.57;;;10.80;99.90;;;;;;5058600;28;20222;-75
2021/04/30 12:35:05;;;;;;;29.00;23.03;;;10.80;99.90;;;;;;5058370;28;20744;-75
2021/04/30 12:37:32;;;;;;;30.57;22.23;;;10.80;99.90;;;;;;5066221;28;20202;-75
2021/04/30 12:40:01;;;;;;;31.27;23.87;;;10.80;99.90;;;;;;5058602;28;20717;-75